Welcome to Northern Hawkes Bay. New Zealand.
PWS Header
      nz Flag



Hit Counter


W3C Valid W3C Valid logo


    Wairoa

Select any of the Stations below to visit their websites.










Historic Data from Weather Underground
Select the location of interest below. Wairoa is the default. Please have patience, this Data is slow to load in.
Northern Hawkes Bay Historical Data
Daily Summary for February 1, 2017 Units:  English    Metric   Both
« Previous Day
Next Day »
Daily Weekly Monthly Yearly Custom
  High: Low: Average:
Temperature: 82.9 °F 61 °F 72.5 °F
Dew Point: 58.5 °F 41 °F 53.2 °F
Humidity: 75% 24% 53%
Wind Speed: 16.8mph 0mph 6mph
Wind Gust: 51.7mph - -
Wind- - WNW
Pressure: 30 in 29.9 in -
Precipitation: 0 in    
Historical Graphs
 
 
Tabular Data for February 1, 2017
Time Temperature Dew Point Pressure Wind Wind Speed Wind Gust Humidity Rainfall Rate (Hourly) solar
00:01 71.6 °F 57.6 °F 30 in Calm   3.1 mph 61% 0 in 0 W/m2
00:07 71.1 °F 57.9 °F 30 in Calm   1.6 mph 63% 0 in 0 W/m2
00:11 70.7 °F 57.9 °F 30 in Calm     64% 0 in 0 W/m2
00:16 70.3 °F 57.6 °F 30 in Calm     64% 0 in 0 W/m2
00:21 70 °F 57.4 °F 30 in WNW 1.6 mph 3.1 mph 64% 0 in 0 W/m2
00:26 69.8 °F 57.6 °F 30 in Calm   3.1 mph 65% 0 in 0 W/m2
00:31 69.4 °F 57.6 °F 30 in Calm   2.2 mph 66% 0 in 0 W/m2
00:36 69.6 °F 57.7 °F 30 in Calm   3.1 mph 66% 0 in 0 W/m2
00:41 69.4 °F 57.6 °F 30 in Calm   3.1 mph 66% 0 in 0 W/m2
00:47 69.1 °F 57.4 °F 30 in Calm   1.6 mph 66% 0 in 0 W/m2
00:51 69.1 °F 57.4 °F 30 in Calm   1.6 mph 66% 0 in 0 W/m2
00:56 68.7 °F 57.4 °F 30 in Calm   1.6 mph 67% 0 in 0 W/m2
01:01 68.5 °F 57.2 °F 30 in Calm   1.6 mph 67% 0 in 0 W/m2
01:07 68.5 °F 56.8 °F 30 in NW 1.6 mph 3.1 mph 66% 0 in 0 W/m2
01:12 68.9 °F 56.7 °F 30 in NNW 3.8 mph 5.4 mph 65% 0 in 0 W/m2
01:16 69.4 °F 56.8 °F 30 in North 5.4 mph 9.8 mph 64% 0 in 0 W/m2
01:22 69.6 °F 56.8 °F 30 in NNW 3.1 mph 11.4 mph 64% 0 in 0 W/m2
01:26 69.6 °F 57.4 °F 30 in NNW 3.8 mph 11.4 mph 65% 0 in 0 W/m2
01:32 69.8 °F 57 °F 30 in NNW 3.8 mph 8.3 mph 64% 0 in 0 W/m2
01:36 69.8 °F 56.7 °F 30 in North 3.8 mph 8.3 mph 63% 0 in 0 W/m2
01:42 69.8 °F 56.1 °F 30 in NNW 3.8 mph 8.3 mph 62% 0 in 0 W/m2
01:47 69.8 °F 55.8 °F 30 in NW 6.9 mph 9.8 mph 61% 0 in 0 W/m2
01:51 70 °F 55.6 °F 30 in NW 5.4 mph 9.8 mph 60% 0 in 0 W/m2
01:57 70 °F 55 °F 30 in NNW 5.4 mph 9.8 mph 59% 0 in 0 W/m2
02:02 69.8 °F 54.9 °F 30 in NNW 6.9 mph 8.3 mph 59% 0 in 0 W/m2
02:07 69.6 °F 54.1 °F 30 in NNW 6 mph 9.8 mph 58% 0 in 0 W/m2
02:12 69.6 °F 53.8 °F 30 in NW 5.4 mph 9.8 mph 57% 0 in 0 W/m2
02:17 69.4 °F 53.1 °F 30 in NW 6.9 mph 10.7 mph 56% 0 in 0 W/m2
02:22 69.6 °F 52.9 °F 30 in NW 4.5 mph 10.7 mph 55% 0 in 0 W/m2
02:26 69.8 °F 52.3 °F 30 in NNW 5.4 mph 12.1 mph 54% 0 in 0 W/m2
02:31 69.4 °F 53.1 °F 30 in NW 6 mph 12.1 mph 56% 0 in 0 W/m2
02:36 69.3 °F 53.4 °F 29.9 in NW 4.5 mph 11.4 mph 57% 0 in 0 W/m2
02:41 69.1 °F 54.1 °F 30 in NW 6.9 mph 11.4 mph 59% 0 in 0 W/m2
02:46 68.9 °F 54.5 °F 30 in NW 5.4 mph 10.7 mph 60% 0 in 0 W/m2
02:50 68.5 °F 54.7 °F 30 in NNW 5.4 mph 9.8 mph 61% 0 in 0 W/m2
02:56 68.2 °F 54.7 °F 30 in North 4.5 mph 9.8 mph 62% 0 in 0 W/m2
03:01 67.8 °F 54.9 °F 29.9 in NNW 6 mph 9.8 mph 63% 0 in 0 W/m2
03:06 67.6 °F 54.7 °F 30 in NNW 3.8 mph 9.8 mph 63% 0 in 0 W/m2
03:11 67.3 °F 54.3 °F 29.9 in North 4.5 mph 9.2 mph 63% 0 in 0 W/m2
03:16 67.3 °F 54.3 °F 30 in North 6.9 mph 10.7 mph 63% 0 in 0 W/m2
03:21 67.1 °F 54.1 °F 30 in NNW 6.9 mph 10.7 mph 63% 0 in 0 W/m2
03:25 67.1 °F 54.1 °F 30 in North 4.5 mph 9.2 mph 63% 0 in 0 W/m2
03:31 67.1 °F 53.8 °F 29.9 in North 3.8 mph 10.7 mph 62% 0 in 0 W/m2
03:36 67.3 °F 53.8 °F 29.9 in NNE 6 mph 10.7 mph 62% 0 in 0 W/m2
03:40 66.9 °F 54 °F 29.9 in North 4.5 mph 9.2 mph 63% 0 in 0 W/m2
03:46 66.7 °F 54.1 °F 29.9 in NNW 4.5 mph 9.2 mph 64% 0 in 0 W/m2
03:51 66.9 °F 54 °F 29.9 in NNW 8.3 mph 13 mph 63% 0 in 0 W/m2
03:56 66.9 °F 54 °F 29.9 in NNW 5.4 mph 13 mph 63% 0 in 0 W/m2
04:01 66.9 °F 54 °F 29.9 in North 8.3 mph 13 mph 63% 0 in 0 W/m2
04:06 67.1 °F 54.1 °F 29.9 in North 9.8 mph 13 mph 63% 0 in 0 W/m2
04:11 67.1 °F 54.1 °F 29.9 in NNW 4.5 mph 13.6 mph 63% 0 in 0 W/m2
04:15 66.9 °F 54 °F 29.9 in NNW 4.5 mph 13.6 mph 63% 0 in 0 W/m2
04:21 66.7 °F 53.8 °F 29.9 in NNW 3.1 mph 9.2 mph 63% 0 in 0 W/m2
04:25 66.4 °F 54 °F 29.9 in NNW 3.8 mph 8.3 mph 64% 0 in 0 W/m2
04:31 66 °F 54 °F 29.9 in NNW 0.7 mph 8.3 mph 65% 0 in 0 W/m2
04:36 65.7 °F 54 °F 29.9 in North 0.7 mph 7.6 mph 66% 0 in 0 W/m2
04:40 65.3 °F 53.8 °F 29.9 in NW 2.2 mph 6 mph 66% 0 in 0 W/m2
04:46 65.8 °F 54.1 °F 29.9 in NW 3.1 mph 9.2 mph 66% 0 in 0 W/m2
04:50 65.8 °F 53.8 °F 29.9 in NNW 0.7 mph 9.2 mph 65% 0 in 0 W/m2
04:56 65.5 °F 53.4 °F 29.9 in Calm   6 mph 65% 0 in 0 W/m2
05:00 64.8 °F 52.7 °F 29.9 in Calm   2.2 mph 65% 0 in 0 W/m2
05:06 64.2 °F 52.5 °F 29.9 in Calm     66% 0 in 0 W/m2
05:10 63.7 °F 52.2 °F 29.9 in Calm     66% 0 in 0 W/m2
05:15 63.5 °F 52.3 °F 29.9 in Calm     67% 0 in 0 W/m2
05:21 63.5 °F 53.2 °F 29.9 in Calm     69% 0 in 0 W/m2
05:25 63.3 °F 53.1 °F 29.9 in Calm     69% 0 in 0 W/m2
05:31 63 °F 53.1 °F 29.9 in Calm   1.6 mph 70% 0 in 0 W/m2
05:35 62.6 °F 53.1 °F 29.9 in Calm   3.1 mph 71% 0 in 0 W/m2
05:41 62.2 °F 53.1 °F 29.9 in WNW 0.7 mph 3.1 mph 72% 0 in 0 W/m2
05:45 61.7 °F 53.1 °F 29.9 in NW 3.1 mph 3.8 mph 73% 0 in 0 W/m2
05:51 61.2 °F 52.9 °F 29.9 in NW 2.2 mph 3.8 mph 74% 0 in 0 W/m2
05:55 61.2 °F 52.9 °F 29.9 in NW 3.1 mph 3.8 mph 74% 0 in 0 W/m2
06:01 61 °F 53.1 °F 29.9 in NNW 3.1 mph 4.5 mph 75% 0 in 0 W/m2
06:05 61 °F 53.1 °F 29.9 in NNW 3.1 mph 4.5 mph 75% 0 in 0 W/m2
06:11 61.5 °F 53.2 °F 29.9 in NNW 5.4 mph 6.9 mph 74% 0 in 0 W/m2
06:15 62.8 °F 53.2 °F 29.9 in North 3.1 mph 6.9 mph 71% 0 in 1 W/m2
06:21 63.5 °F 52.3 °F 29.9 in North 4.5 mph 7.6 mph 67% 0 in 5 W/m2
06:25 64.9 °F 52.9 °F 29.9 in NNE 3.1 mph 8.3 mph 65% 0 in 12 W/m2
06:30 65.3 °F 52.9 °F 29.9 in North 2.2 mph 8.3 mph 64% 0 in 18 W/m2
06:35 65.3 °F 52.9 °F 29.9 in Calm   6.9 mph 64% 0 in 26 W/m2
06:41 64.9 °F 52.9 °F 29.9 in West 1.6 mph 4.5 mph 65% 0 in 52 W/m2
06:45 65.1 °F 53.4 °F 29.9 in Calm   3.1 mph 66% 0 in 71 W/m2
06:50 66 °F 54 °F 29.9 in Calm   3.1 mph 65% 0 in 79 W/m2
06:55 66.7 °F 53.2 °F 29.9 in NW 1.6 mph 3.1 mph 62% 0 in 84 W/m2
07:00 66.9 °F 54 °F 29.9 in North 3.8 mph 7.6 mph 63% 0 in 89 W/m2
07:05 67.5 °F 53.6 °F 29.9 in North 3.8 mph 7.6 mph 61% 0 in 92 W/m2
07:10 68.5 °F 52.2 °F 29.9 in North 3.8 mph 7.6 mph 56% 0 in 97 W/m2
07:15 69.4 °F 53.1 °F 29.9 in Calm   7.6 mph 56% 0 in 114 W/m2
07:20 70.3 °F 52.3 °F 30 in North 3.1 mph 7.6 mph 53% 0 in 122 W/m2
07:25 70.3 °F 52.3 °F 29.9 in North 6 mph 8.3 mph 53% 0 in 131 W/m2
07:30 70.3 °F 52.3 °F 29.9 in North 6 mph 9.8 mph 53% 0 in 129 W/m2
07:36 70.3 °F 52.3 °F 29.9 in NNW 3.1 mph 9.8 mph 53% 0 in 138 W/m2
07:40 70.7 °F 52.9 °F 30 in NNW 3.8 mph 9.8 mph 53% 0 in 171 W/m2
07:46 72 °F 52.3 °F 29.9 in NNW 6.9 mph 9.8 mph 50% 0 in 175 W/m2
07:51 72 °F 49.5 °F 29.9 in NW 8.3 mph 15.2 mph 45% 0 in 186 W/m2
07:55 72 °F 48.9 °F 29.9 in NNW 6 mph 15.2 mph 44% 0 in 198 W/m2
08:01 72.3 °F 49.3 °F 29.9 in NNW 9.8 mph 13.6 mph 44% 0 in 215 W/m2
08:05 73 °F 48.6 °F 30 in NNW 8.3 mph 15.2 mph 42% 0 in 237 W/m2
08:11 72.9 °F 47.8 °F 30 in NNW 15.9 mph 18.3 mph 41% 0 in 260 W/m2
08:15 73.4 °F 48.9 °F 30 in NNW 9.8 mph 18.3 mph 42% 0 in 278 W/m2
08:20 73.6 °F 49.1 °F 29.9 in NW 5.4 mph 18.3 mph 42% 0 in 299 W/m2
08:25 74.3 °F 48.4 °F 29.9 in NW 9.8 mph 19.7 mph 40% 0 in 296 W/m2
08:30 73.9 °F 48.7 °F 30 in NNW 10.7 mph 19.7 mph 41% 0 in 264 W/m2
08:35 74.1 °F 48.4 °F 30 in NNW 10.7 mph 15.9 mph 40% 0 in 334 W/m2
08:40 74.3 °F 47.8 °F 30 in NNW 9.2 mph 15.9 mph 39% 0 in 353 W/m2
08:46 74.3 °F 49.1 °F 30 in North 5.4 mph 15.9 mph 41% 0 in 312 W/m2
08:50 74.3 °F 47.8 °F 30 in NNW 8.3 mph 16.8 mph 39% 0 in 372 W/m2
08:55 74.3 °F 47.8 °F 30 in NNW 7.6 mph 16.8 mph 39% 0 in 414 W/m2
09:00 75 °F 48.4 °F 30 in North 8.3 mph 16.8 mph 39% 0 in 376 W/m2
09:05 75 °F 46.9 °F 30 in NNW 9.8 mph 16.8 mph 37% 0 in 196 W/m2
09:11 73.9 °F 47.5 °F 30 in NNW 8.3 mph 16.8 mph 39% 0 in 128 W/m2
09:15 72.7 °F 47.7 °F 30 in NNW 8.3 mph 15.9 mph 41% 0 in 131 W/m2
09:20 72 °F 47.7 °F 30 in North 7.6 mph 14.5 mph 42% 0 in 129 W/m2
09:25 71.6 °F 47.3 °F 30 in NNW 6 mph 13.6 mph 42% 0 in 298 W/m2
09:30 73 °F 48.6 °F 30 in North 6.9 mph 15.2 mph 42% 0 in 513 W/m2
09:31 73.4 °F 50.2 °F 30 in North 3.8 mph 15.2 mph 44% 0 in 454 W/m2
09:36 74.7 °F 50.2 °F 30 in North 6.9 mph 15.2 mph 42% 0 in 491 W/m2
09:42 75 °F 49.1 °F 30 in NNW 9.8 mph 16.8 mph 40% 0 in 474 W/m2
09:46 75 °F 49.8 °F 30 in NNW 8.3 mph 16.8 mph 41% 0 in 405 W/m2
09:52 75.2 °F 49.3 °F 29.9 in NNW 7.6 mph 15.9 mph 40% 0 in 436 W/m2
09:56 75 °F 49.1 °F 30 in North 9.2 mph 15.9 mph 40% 0 in 383 W/m2
10:01 74.8 °F 48.9 °F 30 in North 8.3 mph 15.2 mph 40% 0 in 337 W/m2
10:06 75 °F 49.1 °F 30 in North 7.6 mph 15.9 mph 40% 0 in 351 W/m2
10:11 75.6 °F 48.9 °F 30 in North 8.3 mph 15.9 mph 39% 0 in 437 W/m2
10:16 76.1 °F 50.2 °F 30 in NNW 9.2 mph 15.9 mph 40% 0 in 407 W/m2
10:22 75.9 °F 49.3 °F 30 in NW 6 mph 15.2 mph 39% 0 in 520 W/m2
10:26 77.2 °F 47.5 °F 30 in NW 6.9 mph 13.6 mph 35% 0 in 422 W/m2
10:31 77.4 °F 49.1 °F 29.9 in NNW 7.6 mph 13.6 mph 37% 0 in 390 W/m2
10:36 77.4 °F 47.7 °F 29.9 in North 6.9 mph 15.2 mph 35% 0 in 401 W/m2
10:41 77 °F 46.6 °F 29.9 in North 4.5 mph 15.9 mph 34% 0 in 481 W/m2
10:46 77.7 °F 47.8 °F 29.9 in NNW 6 mph 15.9 mph 35% 0 in 525 W/m2
10:51 78.3 °F 48.4 °F 29.9 in NNW 9.8 mph 17.4 mph 35% 0 in 639 W/m2
10:56 79.2 °F 48.4 °F 29.9 in North 6 mph 17.4 mph 34% 0 in 852 W/m2
11:01 79.7 °F 48 °F 29.9 in North 6 mph 17.4 mph 33% 0 in 907 W/m2
11:06 80.4 °F 47.8 °F 29.9 in NNW 6.9 mph 14.5 mph 32% 0 in 939 W/m2
11:11 81.3 °F 45.1 °F 29.9 in NNW 10.7 mph 18.3 mph 28% 0 in 699 W/m2
11:16 81.7 °F 41.4 °F 29.9 in NNW 10.7 mph 19.7 mph 24% 0 in 1070 W/m2
11:21 82.9 °F 45.7 °F 29.9 in NW 12.1 mph 19.7 mph 27% 0 in 546 W/m2
11:26 81.1 °F 41 °F 29.9 in WNW 6.9 mph 19.7 mph 24% 0 in 1052 W/m2
11:31 81.5 °F 41.4 °F 29.9 in WNW 9.8 mph 22.8 mph 24% 0 in 907 W/m2
11:36 81 °F 41.9 °F 29.9 in NW 7.6 mph 22.8 mph 25% 0 in 792 W/m2
11:41 80.4 °F 42.4 °F 29.9 in NW 12.1 mph 19 mph 26% 0 in 930 W/m2
11:46 80.4 °F 44.4 °F 29.9 in NW 16.8 mph 21.3 mph 28% 0 in 659 W/m2
11:51 79.9 °F 43 °F 29.9 in NW 15.2 mph 22.8 mph 27% 0 in 662 W/m2
11:56 80.1 °F 45 °F 29.9 in WNW 12.1 mph 22.8 mph 29% 0 in 783 W/m2
12:01 79.9 °F 42.1 °F 29.9 in WNW 8.3 mph 19.7 mph 26% 0 in 636 W/m2
12:06 80.8 °F 45.7 °F 29.9 in NW 4.5 mph 18.3 mph 29% 0 in 747 W/m2
12:11 81.1 °F 45.9 °F 29.9 in WNW 5.4 mph 15.2 mph 29% 0 in 814 W/m2
12:16 81 °F 47.5 °F 29.9 in WNW 5.4 mph 15.2 mph 31% 0 in 620 W/m2
12:21 80.6 °F 47.1 °F 29.9 in NW 3.1 mph 18.3 mph 31% 0 in 682 W/m2
12:26 79.7 °F 47.3 °F 29.9 in NW 9.2 mph 18.3 mph 32% 0 in 625 W/m2
12:31 78.8 °F 46.6 °F 29.9 in NW 10.7 mph 19.7 mph 32% 0 in 593 W/m2
12:36 78.6 °F 47.1 °F 29.9 in NW 9.2 mph 19.7 mph 33% 0 in 713 W/m2
12:41 79 °F 47.5 °F 29.9 in NW 9.8 mph 19.7 mph 33% 0 in 835 W/m2
12:46 79.7 °F 47.3 °F 29.9 in NW 8.3 mph 19 mph 32% 0 in 530 W/m2
12:51 78.6 °F 47.1 °F 29.9 in NW 6.9 mph 21.3 mph 33% 0 in 483 W/m2
12:56 77.9 °F 47.3 °F 29.9 in WNW 11.4 mph 25.1 mph 34% 0 in 452 W/m2
13:01 77.9 °F 48 °F 29.9 in NW 6.9 mph 25.1 mph 35% 0 in 449 W/m2
13:06 77.7 °F 47.8 °F 29.9 in NW 7.6 mph 19 mph 35% 0 in 511 W/m2
13:11 78.4 °F 48.6 °F 29.9 in WNW 10.7 mph 19 mph 35% 0 in 726 W/m2
13:16 78.8 °F 48 °F 29.9 in WNW 9.8 mph 16.8 mph 34% 0 in 847 W/m2
13:21 79.7 °F 48 °F 29.9 in WNW 8.3 mph 16.8 mph 33% 0 in 798 W/m2
13:26 80.1 °F 49.3 °F 29.9 in NW 6 mph 16.8 mph 34% 0 in 498 W/m2
13:31 79.2 °F 47.7 °F 29.9 in NNW 7.6 mph 17.4 mph 33% 0 in 451 W/m2
13:36 78.8 °F 48 °F 29.9 in NW 9.2 mph 17.4 mph 34% 0 in 385 W/m2
13:41 78.1 °F 48.2 °F 29.9 in NW 11.4 mph 17.4 mph 35% 0 in 397 W/m2
13:46 77.7 °F 47.8 °F 29.9 in NW 7.6 mph 17.4 mph 35% 0 in 516 W/m2
13:51 77.7 °F 47.1 °F 29.9 in NW 5.4 mph 18.3 mph 34% 0 in 330 W/m2
13:56 77.5 °F 48.6 °F 29.9 in NW 6 mph 18.3 mph 36% 0 in 285 W/m2
14:01 77.2 °F 48.2 °F 29.9 in NW 8.3 mph 12.1 mph 36% 0 in 226 W/m2
14:06 76.6 °F 49.3 °F 29.9 in NW 9.8 mph 15.9 mph 38% 0 in 262 W/m2
14:11 76.3 °F 48.7 °F 29.9 in NW 9.8 mph 15.9 mph 38% 0 in 253 W/m2
14:16 76.3 °F 48.7 °F 29.9 in WNW 8.3 mph 15.2 mph 38% 0 in 306 W/m2
14:21 76.6 °F 50.5 °F 29.9 in WNW 5.4 mph 15.2 mph 40% 0 in 436 W/m2
14:26 77.4 °F 49.8 °F 29.9 in NW 6.9 mph 15.2 mph 38% 0 in 458 W/m2
14:31 77.5 °F 50 °F 29.9 in NW 9.8 mph 20.6 mph 38% 0 in 410 W/m2
14:36 77.4 °F 49.8 °F 29.9 in NNW 6 mph 20.6 mph 38% 0 in 350 W/m2
14:41 77.7 °F 50.2 °F 29.9 in NW 9.2 mph 15.9 mph 38% 0 in 470 W/m2
14:46 77.9 °F 51.1 °F 29.9 in NW 6 mph 13.6 mph 39% 0 in 563 W/m2
14:51 78.6 °F 52.3 °F 29.9 in NW 4.5 mph 13.6 mph 40% 0 in 427 W/m2
14:56 78.4 °F 51.4 °F 29.9 in NW 6 mph 12.1 mph 39% 0 in 343 W/m2
15:01 77.9 °F 52.3 °F 29.9 in NW 12.1 mph 19 mph 41% 0 in 274 W/m2
15:06 77.5 °F 53.2 °F 29.9 in NW 6.9 mph 19 mph 43% 0 in 245 W/m2
15:11 77.2 °F 53.1 °F 29.9 in NW 10.7 mph 18.3 mph 43% 0 in 220 W/m2
15:16 77 °F 53.4 °F 29.9 in NW 8.3 mph 18.3 mph 44% 0 in 210 W/m2
15:21 77 °F 53.4 °F 29.9 in NW 11.4 mph 16.8 mph 44% 0 in 192 W/m2
15:26 77 °F 53.4 °F 29.9 in NW 12.1 mph 19 mph 44% 0 in 199 W/m2
15:31 77 °F 53.4 °F 29.9 in NW 5.4 mph 19 mph 44% 0 in 197 W/m2
15:36 77 °F 53.4 °F 29.9 in NNW 7.6 mph 18.3 mph 44% 0 in 166 W/m2
15:41 76.8 °F 54.5 °F 29.9 in NW 7.6 mph 16.8 mph 46% 0 in 150 W/m2
15:46 77 °F 54.1 °F 29.9 in NW 6.9 mph 16.8 mph 45% 0 in 157 W/m2
15:51 77.2 °F 53.6 °F 29.9 in NW 6 mph 16.8 mph 44% 0 in 181 W/m2
15:56 77.2 °F 53.6 °F 29.9 in NW 5.4 mph 13 mph 44% 0 in 178 W/m2
16:01 77.4 °F 54.3 °F 29.9 in NW 4.5 mph 13 mph 45% 0 in 165 W/m2
16:06 77.2 °F 54.9 °F 29.9 in NNW 6.9 mph 11.4 mph 46% 0 in 141 W/m2
16:11 77 °F 54.7 °F 29.9 in NNW 7.6 mph 13.6 mph 46% 0 in 123 W/m2
16:16 76.6 °F 55.6 °F 29.9 in NNW 5.4 mph 13.6 mph 48% 0 in 111 W/m2
16:21 76.5 °F 55.2 °F 29.9 in NW 5.4 mph 11.4 mph 48% 0 in 107 W/m2
16:26 75.6 °F 56.1 °F 29.9 in NW 8.3 mph 13 mph 51% 0 in 87 W/m2
16:31 75.2 °F 56.8 °F 29.9 in NW 3.8 mph 13.6 mph 53% 0 in 96 W/m2
16:36 75 °F 56.8 °F 29.9 in NW 7.6 mph 13.6 mph 53% 0 in 97 W/m2
16:41 74.8 °F 56.7 °F 29.9 in NW 5.4 mph 15.2 mph 53% 0 in 86 W/m2
16:46 74.8 °F 57 °F 29.9 in NW 10.7 mph 51.7 mph 54% 0 in 85 W/m2
16:51 74.3 °F 57 °F 29.9 in NNW 9.8 mph 51.7 mph 55% 0 in 83 W/m2
16:56 74.1 °F 57.6 °F 29.9 in NNW 10.7 mph 15.2 mph 56% 0 in 102 W/m2
17:01 74.1 °F 57.6 °F 29.9 in NNW 5.4 mph 15.2 mph 56% 0 in 103 W/m2
17:06 74.1 °F 57.9 °F 29.9 in North 8.3 mph 15.2 mph 57% 0 in 98 W/m2
17:11 73.9 °F 57.7 °F 29.9 in North 4.5 mph 14.5 mph 57% 0 in 83 W/m2
17:16 73.9 °F 57.7 °F 29.9 in North 7.6 mph 14.5 mph 57% 0 in 93 W/m2
17:35 73.9 °F 58.3 °F 29.9 in North 8.3 mph 13 mph 58% 0 in 130 W/m2
17:40 74.1 °F 57.9 °F 29.9 in NNW 7.6 mph 13.6 mph 57% 0 in 130 W/m2
17:45 74.3 °F 57.6 °F 29.9 in NNW 9.8 mph 19.7 mph 56% 0 in 118 W/m2
17:50 74.5 °F 58.3 °F 29.9 in NNW 6 mph 19.7 mph 57% 0 in 112 W/m2
17:55 74.1 °F 58.5 °F 29.9 in North 9.2 mph 17.4 mph 58% 0 in 106 W/m2
18:00 73.8 °F 58.1 °F 29.9 in North 7.6 mph 15.9 mph 58% 0 in 97 W/m2
18:05 73.6 °F 57.4 °F 29.9 in NNW 6.9 mph 15.9 mph 57% 0 in 66 W/m2
18:10 73.4 °F 57.4 °F 29.9 in North 8.3 mph 15.9 mph 57% 0 in 69 W/m2
18:15 73.2 °F 57.6 °F 29.9 in NNE 10.7 mph 15.9 mph 58% 0 in 59 W/m2
18:20 73.2 °F 57.6 °F 29.9 in NNE 4.5 mph 15.9 mph 58% 0 in 46 W/m2
18:25 73.2 °F 57.6 °F 29.9 in NNW 6.9 mph 14.5 mph 58% 0 in 45 W/m2
18:30 73.4 °F 57.4 °F 29.9 in NNW 7.6 mph 14.5 mph 57% 0 in 54 W/m2
18:35 73.4 °F 57.4 °F 29.9 in North 4.5 mph 10.7 mph 57% 0 in 47 W/m2
18:40 73.4 °F 57.4 °F 29.9 in North 6 mph 10.7 mph 57% 0 in 41 W/m2
18:45 73.4 °F 57.4 °F 29.9 in North 5.4 mph 9.8 mph 57% 0 in 45 W/m2
18:50 73.4 °F 57.4 °F 29.9 in North 6.9 mph 9.8 mph 57% 0 in 61 W/m2
18:55 73.4 °F 57.4 °F 29.9 in NNE 5.4 mph 13 mph 57% 0 in 61 W/m2
19:00 73.4 °F 57.7 °F 29.9 in North 3.1 mph 13 mph 58% 0 in 49 W/m2
19:05 73.4 °F 57.7 °F 29.9 in North 2.2 mph 9.2 mph 58% 0 in 47 W/m2
19:10 73.4 °F 57.7 °F 29.9 in North 4.5 mph 12.1 mph 58% 0 in 44 W/m2
19:15 73.6 °F 57.4 °F 29.9 in North 8.3 mph 13 mph 57% 0 in 37 W/m2
19:20 73.6 °F 57.4 °F 29.9 in North 7.6 mph 13 mph 57% 0 in 33 W/m2
19:25 73.4 °F 57.4 °F 29.9 in North 4.5 mph 13 mph 57% 0 in 24 W/m2
19:30 73.4 °F 57.4 °F 29.9 in North 6.9 mph 12.1 mph 57% 0 in 26 W/m2
19:35 73.6 °F 56.8 °F 29.9 in NNW 6.9 mph 13.6 mph 56% 0 in 29 W/m2
19:55 73.6 °F 57.4 °F 29.9 in NW 8.3 mph 15.9 mph 57% 0 in 11 W/m2
20:00 73.6 °F 57.4 °F 29.9 in NW 10.7 mph 16.8 mph 57% 0 in 9 W/m2
20:05 73.6 °F 57.4 °F 29.9 in NNW 10.7 mph 17.4 mph 57% 0 in 6 W/m2
20:10 73.6 °F 57.4 °F 29.9 in NNW 8.3 mph 17.4 mph 57% 0 in 5 W/m2
20:15 73.2 °F 57.6 °F 29.9 in North 5.4 mph 14.5 mph 58% 0 in 4 W/m2
20:20 72.9 °F 58.3 °F 29.9 in North 8.3 mph 10.7 mph 60% 0 in 3 W/m2
20:25 72.7 °F 57.9 °F 29.9 in NNW 4.5 mph 12.1 mph 60% 0 in 1 W/m2
20:30 72.3 °F 58.1 °F 29.9 in North 6.9 mph 12.1 mph 61% 0 in 0 W/m2
20:35 72.3 °F 58.1 °F 29.9 in NNE 5.4 mph 11.4 mph 61% 0 in 0 W/m2
20:40 72.3 °F 58.1 °F 29.9 in North 7.6 mph 13 mph 61% 0 in 0 W/m2
20:45 72.7 °F 57.9 °F 29.9 in North 9.2 mph 13 mph 60% 0 in 0 W/m2
20:50 72.7 °F 57.9 °F 29.9 in North 7.6 mph 13 mph 60% 0 in 0 W/m2
20:55 72.7 °F 57.9 °F 29.9 in NNW 7.6 mph 13 mph 60% 0 in 0 W/m2
21:00 72.7 °F 57.9 °F 29.9 in NNW 4.5 mph 12.1 mph 60% 0 in 0 W/m2
21:05 72.5 °F 57.9 °F 29.9 in NNW 8.3 mph 12.1 mph 60% 0 in 0 W/m2
21:10 72.5 °F 57.9 °F 29.9 in NNW 3.8 mph 14.5 mph 60% 0 in 0 W/m2
21:15 72.1 °F 57.9 °F 29.9 in NNW 4.5 mph 14.5 mph 61% 0 in 0 W/m2
21:20 71.8 °F 57.6 °F 29.9 in North 5.4 mph 9.2 mph 61% 0 in 0 W/m2
21:22 71.6 °F 57.6 °F 29.9 in North 3.1 mph 9.2 mph 61% 0 in 0 W/m2
21:27 71.6 °F 57.9 °F 29.9 in NNE 3.1 mph 7.6 mph 62% 0 in 0 W/m2
21:32 71.2 °F 57.9 °F 29.9 in North 4.5 mph 8.3 mph 63% 0 in 0 W/m2
21:37 71.2 °F 57.9 °F 29.9 in North 5.4 mph 8.3 mph 63% 0 in 0 W/m2
21:42 71.8 °F 58.1 °F 30 in NNW 8.3 mph 11.4 mph 62% 0 in 0 W/m2
21:47 71.8 °F 58.1 °F 29.9 in NNW 8.3 mph 12.1 mph 62% 0 in 0 W/m2
21:52 71.8 °F 58.1 °F 30 in NNW 6 mph 12.1 mph 62% 0 in 0 W/m2
21:57 71.8 °F 58.1 °F 30 in North 8.3 mph 12.1 mph 62% 0 in 0 W/m2
22:02 72 °F 57.7 °F 30 in North 3.8 mph 10.7 mph 61% 0 in 0 W/m2
22:07 71.6 °F 57.9 °F 30 in North 2.2 mph 10.7 mph 62% 0 in 0 W/m2
22:12 71.4 °F 58.3 °F 30 in North 6 mph 8.3 mph 63% 0 in 0 W/m2
22:17 71.4 °F 58.3 °F 30 in NNW 3.8 mph 8.3 mph 63% 0 in 0 W/m2
22:22 71.6 °F 57.9 °F 30 in NNW 5.4 mph 9.8 mph 62% 0 in 0 W/m2
22:27 71.6 °F 57.9 °F 30 in NNW 5.4 mph 9.8 mph 62% 0 in 0 W/m2
22:32 71.8 °F 58.1 °F 30 in NNW 4.5 mph 9.8 mph 62% 0 in 0 W/m2
22:37 71.8 °F 58.1 °F 29.9 in NNW 6 mph 14.5 mph 62% 0 in 0 W/m2
22:42 71.8 °F 58.1 °F 29.9 in NNW 6 mph 14.5 mph 62% 0 in 0 W/m2
23:02 71.6 °F 57.9 °F 29.9 in NNW 8.3 mph 15.2 mph 62% 0 in 0 W/m2
23:07 71.6 °F 57.9 °F 29.9 in NNW 6.9 mph 15.2 mph 62% 0 in 0 W/m2
23:12 71.6 °F 57.9 °F 29.9 in North 5.4 mph 13.6 mph 62% 0 in 0 W/m2
23:17 71.4 °F 58.3 °F 30 in North 5.4 mph 13.6 mph 63% 0 in 0 W/m2
23:22 71.2 °F 58.5 °F 30 in NNW 6 mph 12.1 mph 64% 0 in 0 W/m2
23:27 71.2 °F 58.5 °F 30 in NNW 5.4 mph 12.1 mph 64% 0 in 0 W/m2
23:32 71.2 °F 58.5 °F 30 in NNW 7.6 mph 11.4 mph 64% 0 in 0 W/m2
23:37 71.2 °F 57.9 °F 30 in North 6.9 mph 11.4 mph 63% 0 in 0 W/m2
23:42 71.2 °F 57.9 °F 30 in North 6 mph 11.4 mph 63% 0 in 0 W/m2
23:47 71.6 °F 57.9 °F 30 in NNW 9.2 mph 16.8 mph 62% 0 in 0 W/m2
23:52 72 °F 57.7 °F 30 in NNW 9.2 mph 16.8 mph 61% 0 in 0 W/m2
23:57 72 °F 57.7 °F 30 in NW 9.8 mph 19.7 mph 61% 0 in 0 W/m2
Northern Hawkes Bay. New Zealand Historic Data
Compliments of Weather Underground - 2 mb